Time;durP1;ratioP1;P1;durP2;ratioP2;P2;SDS_P1;SDS_P2;PMS_P1;PMS_P2;Temp;Humidity;BMP_temperature;BMP_pressure;BME280_temperature;BME280_humidity;BME280_pressure;Samples;Min_cycle;Max_cycle;Signal;HPM_P1;HPM_P2
2021/07/26 00:02:19;;;;;;;11.13;10.03;;;;;;;18.11;86.59;100900.53;5013287;28;20186;-81
2021/07/26 00:04:44;;;;;;;10.30;9.30;;;;;;;18.11;86.44;100896.97;5011595;28;20186;-80
2021/07/26 00:07:10;;;;;;;10.07;9.17;;;;;;;17.34;86.11;100801.56;5008105;28;20197;-81
2021/07/26 00:09:36;;;;;;;11.63;10.43;;;;;;;18.62;86.77;100990.91;5008193;28;20259;-81
2021/07/26 00:12:03;;;;;;;10.80;9.63;;;;;;;18.62;86.35;100976.53;5010177;28;20196;-81
2021/07/26 00:14:29;;;;;;;10.67;9.57;;;;;;;18.69;85.92;100979.91;5008055;28;20451;-81
2021/07/26 00:16:54;;;;;;;10.47;9.33;;;;;;;18.63;86.13;100979.00;5009042;28;20520;-81
2021/07/26 00:19:19;;;;;;;11.20;9.90;;;;;;;18.40;85.28;100906.69;5007576;28;20181;-81
2021/07/26 00:21:45;;;;;;;13.07;11.70;;;;;;;18.60;85.43;100957.78;5011779;28;20212;-81
2021/07/26 00:24:10;;;;;;;10.43;8.83;;;;;;;18.27;85.23;100894.25;5016040;28;20245;-81
2021/07/26 00:26:36;;;;;;;15.33;9.40;;;;;;;18.42;85.40;100920.00;5007707;28;20212;-81
2021/07/26 00:29:01;;;;;;;9.67;8.80;;;;;;;17.72;85.74;100857.00;5012551;28;20185;-81
2021/07/26 00:31:29;;;;;;;11.27;10.00;;;;;;;17.70;86.18;100834.69;5012107;28;20185;-81
2021/07/26 00:34:10;;;;;;;10.60;9.50;;;;;;;18.54;86.15;100964.19;5004044;28;20197;-81
2021/07/26 00:36:43;;;;;;;10.23;9.23;;;;;;;18.45;86.37;100974.63;5010961;28;20530;-81
2021/07/26 00:39:10;;;;;;;10.10;9.13;;;;;;;18.57;85.64;100971.00;5018739;28;20436;-81
2021/07/26 00:41:37;;;;;;;11.10;9.90;;;;;;;18.19;85.12;100900.09;5005314;28;20522;-81
2021/07/26 00:44:03;;;;;;;10.80;9.80;;;;;;;18.43;85.41;100932.53;5009295;28;20983;-81
2021/07/26 00:46:28;;;;;;;9.97;8.97;;;;;;;18.56;85.40;100951.16;4997905;28;20884;-81
2021/07/26 00:48:55;;;;;;;11.23;8.47;;;;;;;17.86;85.36;100895.50;5004331;28;20425;-81
2021/07/26 00:51:20;;;;;;;13.43;9.00;;;;;;;17.52;85.15;100781.53;5002691;28;20181;-81
2021/07/26 00:53:47;;;;;;;12.77;9.80;;;;;;;18.52;85.21;100941.88;5001478;28;20789;-81
2021/07/26 00:56:14;;;;;;;10.17;9.27;;;;;;;18.19;85.24;100891.97;5004672;28;20653;-81
2021/07/26 00:58:40;;;;;;;11.10;9.97;;;;;;;18.50;85.15;100941.31;5016887;28;20459;-81
2021/07/26 01:01:05;;;;;;;10.90;9.70;;;;;;;17.79;85.19;100837.84;5001957;28;20479;-81
2021/07/26 01:03:31;;;;;;;9.80;8.80;;;;;;;17.14;84.85;100776.81;5000201;28;20624;-81
2021/07/26 01:05:57;;;;;;;10.00;9.13;;;;;;;17.70;85.66;100845.56;5000284;28;20553;-81
2021/07/26 01:08:22;;;;;;;12.20;9.73;;;;;;;17.34;85.84;100817.84;5000443;28;20216;-81
2021/07/26 01:10:48;;;;;;;14.80;9.77;;;;;;;18.11;85.52;100926.84;4999399;28;20433;-81
2021/07/26 01:13:13;;;;;;;11.43;9.63;;;;;;;16.90;85.38;100722.75;4998592;28;20693;-81
2021/07/26 01:15:38;;;;;;;12.30;9.00;;;;;;;16.98;85.27;100736.94;5001779;28;20604;-81
2021/07/26 01:18:21;;;;;;;10.17;8.63;;;;;;;18.30;85.94;100939.09;5000875;28;20623;-81
2021/07/26 01:20:51;;;;;;;10.60;9.37;;;;;;;18.30;85.43;100942.63;5009872;28;20656;-81
2021/07/26 01:23:16;;;;;;;9.83;8.77;;;;;;;18.15;85.38;100919.88;5000954;28;20439;-81
2021/07/26 01:25:42;;;;;;;10.53;9.50;;;;;;;18.29;85.33;100929.31;5000015;28;20791;-82
2021/07/26 01:28:07;;;;;;;10.17;9.03;;;;;;;17.98;84.93;100863.69;4998802;28;20215;-81
2021/07/26 01:30:33;;;;;;;12.53;8.30;;;;;;;17.70;85.46;100861.00;4997982;28;20272;-81
2021/07/26 01:32:58;;;;;;;9.70;8.80;;;;;;;17.52;85.80;100832.22;4996704;28;21209;-81
2021/07/26 01:35:24;;;;;;;8.33;7.60;;;;;;;18.09;85.94;100945.28;5002920;28;20196;-81
2021/07/26 01:37:50;;;;;;;10.07;8.50;;;;;;;17.80;85.84;100891.88;5000663;28;20200;-81
2021/07/26 01:40:15;;;;;;;11.10;10.00;;;;;;;17.50;86.82;100864.19;5003407;28;20467;-81
2021/07/26 01:42:42;;;;;;;10.03;9.03;;;;;;;18.11;86.36;100930.41;5003530;28;20189;-81
2021/07/26 01:45:09;;;;;;;8.80;7.93;;;;;;;18.10;86.32;100928.72;5002694;28;20265;-82
2021/07/26 01:47:44;;;;;;;8.70;7.80;;;;;;;17.45;85.79;100835.13;5007822;28;20497;-81
2021/07/26 01:50:12;;;;;;;10.27;9.27;;;;;;;17.20;86.03;100808.34;5004902;28;20501;-82
2021/07/26 01:52:38;;;;;;;10.17;8.80;;;;;;;17.25;86.40;100819.31;5019313;28;20457;-82
2021/07/26 01:55:03;;;;;;;11.53;9.43;;;;;;;17.82;85.51;100883.50;5020997;28;20495;-81
2021/07/26 01:57:31;;;;;;;10.70;8.50;;;;;;;17.67;85.17;100859.59;5002525;28;20259;-82
2021/07/26 01:59:56;;;;;;;9.70;8.63;;;;;;;17.29;85.32;100804.19;5004985;28;20605;-81
2021/07/26 02:02:23;;;;;;;12.23;9.23;;;;;;;17.35;84.72;100813.22;5002163;28;20474;-81
2021/07/26 02:04:48;;;;;;;9.40;8.50;;;;;;;18.03;84.76;100926.19;5010659;28;20205;-81
2021/07/26 02:07:13;;;;;;;10.23;9.23;;;;;;;17.66;85.13;100882.38;5003463;28;20830;-81
2021/07/26 02:09:39;;;;;;;9.33;8.50;;;;;;;17.16;85.04;100797.19;5003554;28;20712;-81
2021/07/26 02:12:05;;;;;;;10.33;9.43;;;;;;;17.62;86.08;100894.81;5005703;28;20204;-81
2021/07/26 02:14:30;;;;;;;10.50;9.10;;;;;;;17.23;86.14;100817.91;5004389;28;20185;-81
2021/07/26 02:16:55;;;;;;;9.50;8.50;;;;;;;17.44;85.97;100835.34;5017888;28;20209;-81
2021/07/26 02:19:21;;;;;;;9.43;8.53;;;;;;;17.80;85.14;100907.34;5014647;28;20674;-81
2021/07/26 02:21:51;;;;;;;11.50;8.57;;;;;;;17.19;85.31;100833.84;5012247;28;20213;-81
2021/07/26 02:24:16;;;;;;;10.70;8.77;;;;;;;17.39;85.19;100866.72;5010688;28;20181;-81
2021/07/26 02:26:42;;;;;;;9.07;8.17;;;;;;;17.35;84.98;100870.16;5015596;28;20514;-81
2021/07/26 02:29:07;;;;;;;10.90;8.77;;;;;;;16.85;85.37;100790.38;5006869;28;20178;-81
2021/07/26 02:31:32;;;;;;;9.63;8.67;;;;;;;17.49;86.72;100912.19;5007105;28;20193;-81
2021/07/26 02:33:58;;;;;;;10.70;9.30;;;;;;;17.08;86.32;100805.72;5010162;28;20185;-82
2021/07/26 02:36:23;;;;;;;10.70;9.43;;;;;;;17.35;87.03;100867.44;5006483;28;20676;-81
2021/07/26 02:38:49;;;;;;;9.40;8.50;;;;;;;17.00;86.08;100778.19;5013643;28;20188;-81
2021/07/26 02:41:15;;;;;;;10.47;8.40;;;;;;;17.12;85.50;100822.28;5007215;28;20959;-81
2021/07/26 02:43:41;;;;;;;12.43;9.50;;;;;;;17.86;85.52;100938.94;5002968;28;20719;-81
2021/07/26 02:46:08;;;;;;;10.83;9.87;;;;;;;17.14;86.01;100847.28;5005845;28;20437;-81
2021/07/26 02:48:33;;;;;;;11.60;10.40;;;;;;;17.09;85.92;100833.63;5004469;28;20452;-81
2021/07/26 02:50:59;;;;;;;10.13;9.17;;;;;;;16.81;85.49;100797.34;5005633;28;21535;-81
2021/07/26 02:53:24;;;;;;;10.77;9.27;;;;;;;17.17;85.55;100872.00;5003635;28;20197;-81
2021/07/26 02:55:50;;;;;;;11.80;10.60;;;;;;;17.49;85.71;100925.75;5003734;28;20199;-81
2021/07/26 02:58:17;;;;;;;10.97;9.73;;;;;;;16.34;86.34;100753.28;5005643;28;20587;-82
2021/07/26 03:00:46;;;;;;;9.30;8.40;;;;;;;17.26;85.36;100868.91;5002807;28;20220;-82
2021/07/26 03:03:11;;;;;;;10.03;9.13;;;;;;;16.96;86.07;100833.94;5003233;28;20458;-82
2021/07/26 03:05:37;;;;;;;10.40;9.50;;;;;;;17.27;85.42;100922.03;5007048;28;20575;-81
2021/07/26 03:08:02;;;;;;;12.50;9.60;;;;;;;17.11;85.56;100883.00;5021454;28;20212;-81
2021/07/26 03:10:28;;;;;;;13.33;10.97;;;;;;;17.32;86.55;100917.56;5008749;28;20197;-83
2021/07/26 03:12:53;;;;;;;14.00;11.40;;;;;;;17.34;86.57;100898.34;5002884;28;20204;-82
2021/07/26 03:15:19;;;;;;;14.90;12.00;;;;;;;17.17;86.38;100873.91;5004243;28;20198;-83
2021/07/26 03:17:45;;;;;;;12.97;11.67;;;;;;;17.10;85.53;100865.09;5002986;28;20197;-82
2021/07/26 03:20:11;;;;;;;14.00;12.63;;;;;;;17.45;85.58;100919.16;5001593;28;20552;-82
2021/07/26 03:22:59;;;;;;;12.50;11.03;;;;;;;17.65;86.41;100986.53;5003949;28;20935;-82
2021/07/26 03:25:27;;;;;;;13.23;11.87;;;;;;;17.74;86.11;100976.94;5016798;28;20441;-83
2021/07/26 03:27:52;;;;;;;14.27;12.77;;;;;;;17.47;85.79;100929.75;5002298;28;20475;-82
2021/07/26 03:30:19;;;;;;;13.90;12.50;;;;;;;17.83;85.77;100980.13;5004697;28;20453;-82
2021/07/26 03:32:45;;;;;;;16.93;14.80;;;;;;;17.78;86.32;100991.69;5004564;28;20214;-82
2021/07/26 03:35:12;;;;;;;16.00;14.40;;;;;;;17.54;86.60;100979.25;5006164;28;20445;-82
2021/07/26 03:37:38;;;;;;;16.33;14.70;;;;;;;16.89;86.77;100864.69;5003414;28;20476;-82
2021/07/26 03:40:05;;;;;;;17.70;16.00;;;;;;;17.58;86.84;100958.72;5012267;28;20440;-83
2021/07/26 03:42:33;;;;;;;17.77;15.70;;;;;;;17.55;88.76;100995.28;5004518;28;20193;-82
2021/07/26 03:44:59;;;;;;;22.87;20.50;;;;;;;15.85;89.39;100760.88;5003076;28;20489;-83
2021/07/26 03:47:24;;;;;;;20.50;18.43;;;;;;;17.14;89.20;100931.28;5002954;28;20563;-82
2021/07/26 03:49:50;;;;;;;22.17;19.80;;;;;;;16.70;90.02;100882.94;5001223;28;20185;-82
2021/07/26 03:52:15;;;;;;;21.60;19.47;;;;;;;17.33;89.64;100968.00;5003066;28;20204;-83
2021/07/26 03:54:41;;;;;;;20.07;17.80;;;;;;;17.56;89.21;100979.81;5002602;28;20209;-82
2021/07/26 03:57:06;;;;;;;22.93;18.63;;;;;;;17.67;88.60;101019.66;5003871;28;20267;-82
2021/07/26 03:59:31;;;;;;;24.17;21.37;;;;;;;17.38;88.64;100946.41;5002489;28;20189;-82
2021/07/26 04:01:57;;;;;;;22.60;17.67;;;;;;;16.92;88.77;100883.19;5000234;28;20192;-83
2021/07/26 04:04:23;;;;;;;21.37;19.20;;;;;;;16.58;88.14;100798.22;5001969;28;20190;-83
2021/07/26 04:06:52;;;;;;;19.50;17.60;;;;;;;17.42;88.77;100940.53;4997808;28;20213;-82
2021/07/26 04:09:20;;;;;;;23.20;18.83;;;;;;;16.76;88.61;100856.81;5001576;28;20995;-83
2021/07/26 04:11:47;;;;;;;22.87;20.47;;;;;;;16.74;88.66;100804.75;5001241;28;20526;-83
2021/07/26 04:14:14;;;;;;;20.77;18.77;;;;;;;16.68;88.76;100778.63;5001515;28;20462;-82
2021/07/26 04:16:40;;;;;;;24.97;22.57;;;;;;;17.46;89.34;100958.78;5005807;28;20541;-82
2021/07/26 04:19:05;;;;;;;24.03;21.53;;;;;;;16.48;89.70;100773.63;5001577;28;20479;-82
2021/07/26 04:21:32;;;;;;;27.47;24.67;;;;;;;16.82;89.47;100831.50;5001617;28;20850;-82
2021/07/26 04:23:58;;;;;;;24.33;21.73;;;;;;;17.97;89.33;100991.50;5000471;28;20213;-82
2021/07/26 04:26:24;;;;;;;29.03;25.90;;;;;;;17.85;89.85;100975.28;5000857;28;20461;-82
2021/07/26 04:28:50;;;;;;;35.30;31.73;;;;;;;16.78;89.16;100781.56;4998633;28;20445;-82
2021/07/26 04:31:15;;;;;;;31.60;24.87;;;;;;;17.70;87.99;100907.94;5001220;28;20455;-82
2021/07/26 04:33:41;;;;;;;46.40;41.70;;;;;;;17.97;88.69;101000.44;5010643;28;20212;-82
2021/07/26 04:36:06;;;;;;;23.60;21.27;;;;;;;16.94;88.10;100813.28;5010089;28;20235;-82
2021/07/26 04:38:32;;;;;;;23.00;19.87;;;;;;;17.86;88.15;100936.22;5013808;28;20216;-82
2021/07/26 04:40:58;;;;;;;23.03;20.90;;;;;;;17.87;87.99;100956.03;5005435;28;20192;-82
2021/07/26 04:43:23;;;;;;;24.07;21.53;;;;;;;17.13;88.46;100829.38;5007632;28;20197;-82
2021/07/26 04:45:49;;;;;;;35.80;32.07;;;;;;;17.92;89.79;100981.34;5006360;28;20519;-82
2021/07/26 04:48:15;;;;;;;27.00;23.33;;;;;;;17.29;89.92;100879.25;5004985;28;20217;-82
2021/07/26 04:50:41;;;;;;;26.87;24.20;;;;;;;17.40;89.15;100884.63;5004334;28;20444;-82
2021/07/26 04:53:06;;;;;;;26.03;23.53;;;;;;;16.45;89.13;100755.97;5004985;28;20223;-82
2021/07/26 04:55:31;;;;;;;34.30;30.60;;;;;;;17.34;89.06;100857.69;5007351;28;20561;-82
2021/07/26 04:57:57;;;;;;;29.70;26.70;;;;;;;16.89;89.23;100813.22;5006972;28;20310;-82
2021/07/26 05:00:26;;;;;;;33.93;26.83;;;;;;;16.86;89.34;100813.69;5001864;28;20185;-82
2021/07/26 05:02:51;;;;;;;23.73;21.10;;;;;;;16.58;89.66;100770.31;5002437;28;20177;-81
2021/07/26 05:05:17;;;;;;;50.17;45.00;;;;;;;16.43;89.70;100736.44;5001332;28;20440;-82
2021/07/26 05:07:43;;;;;;;66.47;59.70;;;;;;;18.17;89.76;100989.13;5006667;28;21058;-82
2021/07/26 05:10:10;;;;;;;28.40;25.37;;;;;;;17.77;89.59;100932.22;4998032;28;20280;-83
2021/07/26 05:12:36;;;;;;;58.10;52.13;;;;;;;18.16;89.42;100981.22;4999010;28;20645;-83
2021/07/26 05:15:01;;;;;;;45.20;40.27;;;;;;;17.95;89.43;100939.34;5003477;28;20531;-83
2021/07/26 05:17:28;;;;;;;57.07;50.93;;;;;;;18.25;89.87;100988.72;4999228;28;20213;-82
2021/07/26 05:19:54;;;;;;;73.83;66.37;;;;;;;18.37;89.84;101009.53;5001044;28;20196;-83
2021/07/26 05:22:20;;;;;;;75.13;65.33;;;;;;;17.10;89.73;100821.75;5000274;28;20444;-83
2021/07/26 05:24:46;;;;;;;38.97;34.83;;;;;;;18.17;89.46;100977.47;4998077;28;20459;-83
2021/07/26 05:27:12;;;;;;;53.10;47.67;;;;;;;18.42;89.35;100998.75;5000143;28;20522;-83
2021/07/26 05:29:38;;;;;;;58.37;52.20;;;;;;;17.99;89.80;100933.19;4997291;28;20201;-83
2021/07/26 05:32:04;;;;;;;69.07;61.63;;;;;;;18.46;89.59;100992.59;5013308;28;20461;-83
2021/07/26 05:34:30;;;;;;;34.50;29.23;;;;;;;18.55;89.25;100997.63;5005268;28;20841;-82
2021/07/26 05:36:56;;;;;;;44.83;40.40;;;;;;;18.58;89.61;100994.41;5000027;28;20557;-83
2021/07/26 05:39:25;;;;;;;62.03;55.50;;;;;;;18.46;90.07;100994.50;5000831;28;20295;-83
2021/07/26 05:41:52;;;;;;;36.27;31.93;;;;;;;18.58;89.85;100983.53;5001404;28;20470;-83
2021/07/26 05:44:17;;;;;;;62.07;55.83;;;;;;;18.48;90.13;100989.63;4998803;28;20937;-83
2021/07/26 05:46:43;;;;;;;102.50;92.03;;;;;;;18.24;91.03;100967.25;4998457;28;20479;-83
2021/07/26 05:49:08;;;;;;;103.23;92.13;;;;;;;17.50;91.28;100848.75;5000153;28;20195;-83
2021/07/26 05:51:33;;;;;;;74.27;66.57;;;;;;;18.16;91.53;100946.75;5000567;28;20197;-83
2021/07/26 05:53:59;;;;;;;120.77;107.90;;;;;;;18.52;91.13;100988.06;4999516;28;20189;-83
2021/07/26 05:56:25;;;;;;;71.40;64.23;;;;;;;18.35;91.13;100946.50;5000009;28;20304;-83
2021/07/26 05:58:50;;;;;;;113.87;101.73;;;;;;;17.05;90.35;100738.44;5001242;28;20233;-83
2021/07/26 06:03:49;;;;;;;155.57;139.07;;;;;;;17.61;91.32;100858.69;5001487;28;20198;-83
2021/07/26 06:06:14;;;;;;;149.03;133.17;;;;;;;18.72;91.11;100982.13;5016412;28;20554;-83
2021/07/26 06:08:40;;;;;;;159.87;142.27;;;;;;;18.81;90.66;100983.38;4999006;28;20531;-83
2021/07/26 06:11:05;;;;;;;151.73;135.43;;;;;;;18.38;90.66;100918.88;5001777;28;20219;-84
2021/07/26 06:13:33;;;;;;;285.87;257.00;;;;;;;18.13;90.68;100873.13;4999843;28;20705;-83
2021/07/26 06:15:59;;;;;;;191.33;173.00;;;;;;;18.27;91.16;100910.53;5000540;28;20744;-84
2021/07/26 06:18:26;;;;;;;158.63;141.93;;;;;;;18.10;91.13;100873.63;4999082;28;20450;-83
2021/07/26 06:20:52;;;;;;;238.47;214.13;;;;;;;18.64;90.22;100950.75;5005024;28;20193;-83
2021/07/26 06:23:19;;;;;;;204.87;183.70;;;;;;;18.13;90.49;100856.84;5004586;28;20435;-84
2021/07/26 06:25:45;;;;;;;213.80;190.83;;;;;;;18.92;91.35;100968.03;5003639;28;20447;-83
2021/07/26 06:28:10;;;;;;;199.73;179.07;;;;;;;18.95;90.94;100992.00;5002617;28;20456;-83
2021/07/26 06:30:36;;;;;;;241.37;216.37;;;;;;;18.52;90.07;100895.72;5002445;28;20186;-83
2021/07/26 06:33:01;;;;;;;235.13;210.60;;;;;;;19.17;90.11;100998.25;5004634;28;20597;-83
2021/07/26 06:35:26;;;;;;;201.77;180.87;;;;;;;18.36;89.67;100858.53;5001967;28;20282;-83
2021/07/26 06:37:52;;;;;;;220.00;196.07;;;;;;;17.90;89.46;100790.00;5016990;28;20209;-83
2021/07/26 06:40:20;;;;;;;223.33;200.37;;;;;;;18.91;89.16;100925.59;5004803;28;20661;-83
2021/07/26 06:42:45;;;;;;;116.00;104.50;;;;;;;18.56;88.91;100893.31;5004291;28;20276;-83
2021/07/26 06:45:11;;;;;;;227.97;203.87;;;;;;;18.87;89.72;100963.34;5001550;28;21594;-83
2021/07/26 06:47:36;;;;;;;223.03;199.83;;;;;;;18.32;89.38;100879.13;5005014;28;20228;-83
2021/07/26 06:50:04;;;;;;;233.43;208.97;;;;;;;17.91;89.62;100816.91;5007358;28;20527;-83
2021/07/26 06:52:29;;;;;;;189.03;170.67;;;;;;;18.91;88.67;100963.66;5013251;28;20216;-83
2021/07/26 06:54:54;;;;;;;303.63;276.30;;;;;;;18.79;88.03;100966.47;5011093;28;20508;-81
2021/07/26 06:57:20;;;;;;;188.27;167.97;;;;;;;18.68;89.30;100940.19;5016980;28;20221;-81
2021/07/26 06:59:45;;;;;;;187.77;168.20;;;;;;;18.45;88.25;100876.88;5016289;28;20186;-81
2021/07/26 07:02:12;;;;;;;205.40;184.27;;;;;;;18.97;88.45;100955.31;5012126;28;20192;-81
2021/07/26 07:04:38;;;;;;;360.67;329.33;;;;;;;18.73;88.78;100911.25;5007960;28;20252;-81
2021/07/26 07:07:05;;;;;;;293.60;264.90;;;;;;;18.90;87.32;100929.41;5019359;28;20484;-81
2021/07/26 07:09:32;;;;;;;273.00;245.23;;;;;;;18.75;87.42;100902.84;5002730;28;20205;-82
2021/07/26 07:11:57;;;;;;;230.60;205.40;;;;;;;19.05;85.82;100917.91;5004116;28;20464;-81
2021/07/26 07:14:23;;;;;;;207.93;187.03;;;;;;;18.88;86.84;100896.22;5010483;28;20436;-80
2021/07/26 07:16:48;;;;;;;202.60;182.57;;;;;;;18.69;86.72;100866.59;5011567;28;20209;-80
2021/07/26 07:19:13;;;;;;;220.13;195.80;;;;;;;19.67;87.39;100984.72;5010894;28;20241;-81
2021/07/26 07:21:39;;;;;;;248.87;221.37;;;;;;;19.40;86.52;100926.47;5010301;28;20192;-81
2021/07/26 07:24:04;;;;;;;183.97;165.23;;;;;;;19.76;86.09;100977.72;5008744;28;20205;-81
2021/07/26 07:26:31;;;;;;;269.70;226.53;;;;;;;19.95;85.85;100978.22;5008984;28;20204;-81
2021/07/26 07:28:57;;;;;;;220.93;197.07;;;;;;;20.11;84.15;101003.69;5004404;28;20223;-81
2021/07/26 07:31:23;;;;;;;183.87;164.37;;;;;;;19.27;83.89;100861.59;5006916;28;20445;-81
2021/07/26 07:33:50;;;;;;;165.73;143.27;;;;;;;20.11;83.01;101000.97;5008093;28;20206;-81
2021/07/26 07:36:15;;;;;;;406.43;370.10;;;;;;;19.55;84.50;100928.50;5006550;28;20448;-81
2021/07/26 07:38:41;;;;;;;68.33;61.10;;;;;;;20.07;83.53;100992.47;5004613;28;20441;-82
2021/07/26 07:41:06;;;;;;;55.77;49.03;;;;;;;20.04;84.85;100958.41;5005534;28;20562;-82
2021/07/26 07:43:32;;;;;;;105.63;92.97;;;;;;;20.36;82.69;101003.06;5008814;28;20216;-81
2021/07/26 07:45:58;;;;;;;50.27;44.87;;;;;;;20.30;82.03;101021.28;5006182;28;20177;-82
2021/07/26 07:48:25;;;;;;;160.07;142.83;;;;;;;20.36;81.43;100990.25;5009563;28;20976;-82
2021/07/26 07:50:52;;;;;;;57.27;51.27;;;;;;;20.27;81.46;100973.56;5006172;28;20472;-81
2021/07/26 07:53:17;;;;;;;43.30;38.97;;;;;;;20.43;81.55;100987.34;5008799;28;20487;-81
2021/07/26 07:55:43;;;;;;;21.20;19.07;;;;;;;20.58;81.13;101008.47;5008775;28;21017;-81
2021/07/26 07:58:08;;;;;;;26.77;24.07;;;;;;;20.15;80.96;100928.56;5007746;28;20221;-81
2021/07/26 08:00:34;;;;;;;45.77;41.43;;;;;;;20.06;80.02;100901.00;5012374;28;20212;-81
2021/07/26 08:03:00;;;;;;;85.80;77.33;;;;;;;19.57;80.90;100831.16;5015632;28;20201;-82
2021/07/26 08:05:26;;;;;;;73.43;65.73;;;;;;;20.13;81.53;100898.03;5013408;28;20181;-82
2021/07/26 08:07:52;;;;;;;85.73;77.90;;;;;;;20.38;79.84;100944.53;5005170;28;20521;-82
2021/07/26 08:10:17;;;;;;;58.47;52.83;;;;;;;20.67;79.39;100974.19;5009705;28;20436;-82
2021/07/26 08:12:43;;;;;;;26.43;23.93;;;;;;;20.32;79.02;100951.84;5008158;28;20194;-82
2021/07/26 08:15:09;;;;;;;38.00;34.43;;;;;;;20.38;80.36;100932.81;5009511;28;20182;-82
2021/07/26 08:17:39;;;;;;;39.97;35.90;;;;;;;20.93;80.20;100997.78;5003706;28;20224;-85
2021/07/26 08:20:06;;;;;;;16.10;14.43;;;;;;;21.04;78.12;101006.03;5007933;28;20480;-84
2021/07/26 08:22:32;;;;;;;20.43;18.53;;;;;;;20.83;78.14;100980.53;5007406;28;20436;-85
2021/07/26 08:24:57;;;;;;;13.47;11.87;;;;;;;21.10;78.99;101003.06;5007132;28;20846;-83
2021/07/26 08:27:23;;;;;;;11.63;10.47;;;;;;;20.88;78.81;100984.09;5016754;28;20202;-85
2021/07/26 08:29:48;;;;;;;16.63;14.97;;;;;;;20.63;77.34;100907.66;5005288;28;20188;-83
2021/07/26 08:32:13;;;;;;;15.40;13.97;;;;;;;20.85;76.57;100953.84;5013210;28;20627;-84
2021/07/26 08:34:39;;;;;;;19.10;17.23;;;;;;;21.13;78.63;100979.88;5008143;28;20284;-85
2021/07/26 08:37:04;;;;;;;18.43;16.63;;;;;;;21.15;78.01;100966.81;5009211;28;20251;-85
2021/07/26 08:39:30;;;;;;;8.00;7.30;;;;;;;20.80;74.67;100907.47;5004473;28;20189;-85
2021/07/26 08:41:56;;;;;;;13.27;8.63;;;;;;;20.80;75.95;100904.72;5008007;28;20219;-85
2021/07/26 08:44:21;;;;;;;7.27;6.60;;;;;;;20.69;76.33;100901.16;5011600;28;20182;-85
2021/07/26 08:46:51;;;;;;;18.83;15.23;;;;;;;21.10;76.66;100942.25;5010537;28;20967;-86
2021/07/26 08:49:18;;;;;;;18.93;16.93;;;;;;;20.85;76.06;100897.41;5010357;28;20192;-85
2021/07/26 08:51:44;;;;;;;10.23;9.37;;;;;;;20.93;76.50;100896.91;5013224;28;20471;-86
2021/07/26 08:54:12;;;;;;;53.23;48.17;;;;;;;21.37;74.00;100967.47;5017167;28;20420;-85
2021/07/26 08:56:38;;;;;;;5.80;5.33;;;;;;;21.67;74.53;101015.88;5016623;28;20577;-86
2021/07/26 08:59:03;;;;;;;25.50;23.17;;;;;;;21.40;73.93;100964.19;5022344;28;20447;-86
2021/07/26 09:01:29;;;;;;;10.07;6.80;;;;;;;21.19;73.81;100903.25;5022479;28;20248;-86
2021/07/26 09:03:56;;;;;;;6.40;5.80;;;;;;;21.52;73.42;100960.41;5019561;28;20265;-85
2021/07/26 09:06:21;;;;;;;7.37;5.77;;;;;;;21.00;72.57;100893.91;5020881;28;20460;-86
2021/07/26 09:08:49;;;;;;;8.43;6.30;;;;;;;21.46;71.03;100972.41;5019500;28;20535;-86
2021/07/26 09:11:15;;;;;;;5.03;4.47;;;;;;;21.18;72.01;100917.19;5020748;28;20173;-86
2021/07/26 09:13:44;;;;;;;9.77;8.50;;;;;;;21.85;72.65;101020.00;5028558;28;20466;-85
2021/07/26 09:16:17;;;;;;;7.33;6.10;;;;;;;22.06;74.10;101020.03;5019333;28;20170;-85
2021/07/26 09:18:44;;;;;;;8.00;7.20;;;;;;;21.14;72.95;100891.50;5011074;28;20437;-86
2021/07/26 09:21:09;;;;;;;7.63;6.37;;;;;;;21.17;72.91;100902.69;5026267;28;20439;-85
2021/07/26 09:23:38;;;;;;;5.33;4.60;;;;;;;21.35;73.60;100911.47;5011527;28;20820;-85
2021/07/26 09:26:27;;;;;;;6.63;5.93;;;;;;;21.86;73.21;100991.59;5009763;28;20189;-85
2021/07/26 09:28:52;;;;;;;124.80;113.27;;;;;;;22.00;71.08;100996.53;5005857;28;20430;-85
2021/07/26 09:31:18;;;;;;;7.00;4.90;;;;;;;22.01;70.42;101001.72;5012030;28;20523;-85
2021/07/26 09:33:43;;;;;;;7.00;3.80;;;;;;;21.91;70.40;100943.56;5004783;28;20240;-86
2021/07/26 09:36:20;;;;;;;5.63;5.13;;;;;;;22.56;69.64;101023.91;5005154;28;20185;-85
2021/07/26 09:38:48;;;;;;;4.67;4.27;;;;;;;22.39;69.71;101037.88;5007586;28;20185;-85
2021/07/26 09:41:18;;;;;;;4.63;4.23;;;;;;;22.32;69.52;101026.38;5011566;28;20479;-85
2021/07/26 09:43:44;;;;;;;14.73;12.90;;;;;;;21.93;69.25;100972.25;5016532;28;20479;-84
2021/07/26 09:46:24;;;;;;;7.27;4.40;;;;;;;22.07;69.11;100953.38;5005457;28;20452;-86
2021/07/26 09:49:07;;;;;;;3.53;3.20;;;;;;;22.34;69.58;100967.63;5013091;28;20435;-86
2021/07/26 09:51:32;;;;;;;5.37;4.40;;;;;;;22.69;68.99;101028.81;5010663;28;20439;-85
2021/07/26 09:53:58;;;;;;;6.33;5.00;;;;;;;22.47;69.09;100981.81;5009656;28;20999;-86
2021/07/26 09:56:30;;;;;;;4.60;3.47;;;;;;;22.67;69.21;101025.53;5011541;28;20269;-86
2021/07/26 09:58:55;;;;;;;4.80;4.30;;;;;;;21.82;67.82;100903.16;5010291;28;20268;-85
2021/07/26 10:01:22;;;;;;;4.27;3.87;;;;;;;22.03;65.58;100927.72;5008149;28;20436;-86
2021/07/26 10:03:51;;;;;;;4.73;3.90;;;;;;;22.30;66.47;100966.56;5011056;28;20223;-86
2021/07/26 10:06:18;;;;;;;6.33;5.17;;;;;;;22.33;65.30;100968.72;5027552;28;21014;-86
2021/07/26 10:08:44;;;;;;;5.13;4.00;;;;;;;21.16;66.39;100764.69;5010230;28;20527;-86
2021/07/26 10:11:09;;;;;;;8.50;3.63;;;;;;;22.96;66.40;101024.97;5014071;28;20456;-86
2021/07/26 10:13:38;;;;;;;3.90;3.50;;;;;;;22.87;66.72;101005.53;5008808;28;20205;-86
2021/07/26 10:16:04;;;;;;;6.50;3.30;;;;;;;22.72;66.41;100967.31;5007606;28;20649;-86
2021/07/26 10:18:30;;;;;;;5.17;4.63;;;;;;;22.89;66.91;101018.97;5007403;28;20420;-85
2021/07/26 10:21:03;;;;;;;6.27;4.07;;;;;;;22.88;66.34;101011.84;5009847;28;20440;-85
2021/07/26 10:23:37;;;;;;;5.27;4.03;;;;;;;22.61;65.33;100947.38;5010333;28;20186;-85
2021/07/26 10:26:09;;;;;;;6.13;4.03;;;;;;;22.73;65.62;100977.13;5002999;28;20523;-85
2021/07/26 10:28:55;;;;;;;6.10;3.87;;;;;;;22.46;66.42;100923.63;5003726;28;20413;-85
2021/07/26 10:31:34;;;;;;;6.10;4.40;;;;;;;22.94;66.33;101007.97;5009474;28;20451;-85
2021/07/26 10:34:09;;;;;;;3.73;3.43;;;;;;;23.05;66.48;101008.81;5006852;28;20476;-85
2021/07/26 10:36:41;;;;;;;5.97;3.93;;;;;;;23.13;65.37;101013.72;5004614;28;20860;-85
2021/07/26 10:39:19;;;;;;;4.27;3.80;;;;;;;23.38;66.31;101010.06;5005996;28;20429;-85
2021/07/26 10:41:45;;;;;;;4.50;3.30;;;;;;;23.48;64.60;101009.19;5003341;28;20471;-84
2021/07/26 10:44:16;;;;;;;4.43;3.67;;;;;;;23.58;64.29;101006.44;5005453;28;20497;-84
2021/07/26 10:46:50;;;;;;;3.27;2.97;;;;;;;23.78;64.58;101000.88;5012334;28;20613;-84
2021/07/26 10:49:16;;;;;;;11.20;9.33;;;;;;;22.96;64.00;100941.00;5013463;28;20436;-84
2021/07/26 10:51:45;;;;;;;4.17;3.70;;;;;;;23.53;65.18;100985.34;5004940;28;20452;-85
2021/07/26 10:54:32;;;;;;;4.43;3.80;;;;;;;23.51;65.37;101012.19;5006119;28;20244;-84
2021/07/26 10:57:06;;;;;;;3.93;3.33;;;;;;;23.38;66.07;101007.34;5001441;28;20466;-85
2021/07/26 11:00:09;;;;;;;4.13;3.83;;;;;;;22.36;65.75;100838.09;5004335;28;20433;-85
2021/07/26 11:02:36;;;;;;;4.17;3.60;;;;;;;23.46;62.63;100941.88;5009663;28;21126;-83
2021/07/26 11:05:24;;;;;;;5.27;4.30;;;;;;;24.12;61.34;101000.88;4999102;28;20447;-84
2021/07/26 11:08:11;;;;;;;5.27;3.70;;;;;;;23.94;60.35;100985.13;5001423;28;20467;-84
2021/07/26 11:10:50;;;;;;;4.10;3.60;;;;;;;23.67;61.51;100967.22;4998905;28;20466;-82
2021/07/26 11:13:16;;;;;;;6.87;5.50;;;;;;;23.73;61.72;101011.84;5000902;28;20995;-83
2021/07/26 11:15:43;;;;;;;6.23;5.67;;;;;;;23.11;60.61;100923.69;5001876;28;20921;-85